To NAV CANADA Home Page Login to a new session Search on AWWS site Disclaimer Vers la page française équivalente Tips FAQ What's new on the site To the Forecasts and Observations / NOTAM section To "File a Flight Plan" website Publications and other links Update of the User's profile FIC Telephone Numbers My Weather Data Folder Route Weather Data Regional Weather Data Local Weather Data To the Forecasts and Observations / NOTAM section
Request Generated 06/15/2019 at 23:01:14 UTC . Weather information available at that time is displayed.

METAR/TAF

KITCHENER/WATERLOO/ON    (show WxCam)

SPECI CYKF 152253Z AUTO 25003KT 1 3/4SM -RA BR OVC008 16/16 A2984 RMK SLP106 DENSITY ALT 1500FT=
SPECI CYKF 152244Z AUTO 25004KT 2 1/4SM -RA BR OVC008 16/16 A2984 RMK SLP105 DENSITY ALT 1500FT=
METAR CYKF 152200Z AUTO 24003KT 3SM -RA BR OVC011 17/16 A2984 RMK SLP104 DENSITY ALT 1500FT=
SPECI CYKF 152142Z AUTO 25005KT 5SM -RA BR OVC015 17/16 A2983 RMK SLP103 DENSITY ALT 1600FT=
SPECI CYKF 152127Z AUTO 21007KT 9SM -RA OVC017 17/15 A2983 RMK SLP103 DENSITY ALT 1600FT=
METAR CYKF 152100Z AUTO 23010KT 9SM OVC019 18/15 A2983 RMK SLP103 DENSITY ALT 1700FT=
METAR CYKF 152000Z AUTO 22008G16KT 9SM OVC021 18/15 A2983 RMK SLP101 DENSITY ALT 1700FT=

TAF AMD CYKF 152204Z 1522/1608 22010G20KT P6SM -SHRA OVC015 TEMPO
1522/1604 2SM -SHRA BR BKN006 OVC010
BECMG 1523/1601 33008KT
FM160400 02005KT P6SM OVC015 TEMPO 1604/1608 3SM BR BKN005 OVC010
RMK FCST BASED ON AUTO OBS. NXT FCST BY 160200Z=

LONDON/ON    

SPECI CYXU 152240Z 21007KT 6SM -SHRA BR BKN014 BKN025 OVC045 18/16 A2983 RMK SF5SC2SC1 CVCTV CLD EMBD SLP103 DENSITY ALT 1600FT=
SPECI CYXU 152214Z 22009G16KT 10SM SCT014 BKN025 BKN055 OVC090 19/16 A2984 RMK SF3SC2SC2AC1 SLP104 DENSITY ALT 1700FT=
METAR CYXU 152200Z 22008KT 12SM -SHRA SCT014 BKN020 OVC090 18/16 A2984 RMK SF3SC3AC2 CVCTV CLD EMBD SLP105 DENSITY ALT 1700FT=
SPECI CYXU 152136Z 23013KT 12SM FEW017 BKN022 OVC090 19/16 A2984 RMK CF1SC5AC2 SLP104 DENSITY ALT 1700FT=
METAR CYXU 152100Z 21008KT 12SM -SHRA FEW020 BKN062 OVC090 19/16 A2984 RMK CF1SC5AC2 CVCTV CLD EMBD SLP106 DENSITY ALT 1700FT=
SPECI CYXU 152054Z 22008KT 12SM -SHRA FEW020 BKN062 OVC090 19/16 A2984 RMK CF1SC5AC2 CVCTV CLD EMBD SLP106 DENSITY ALT 1700FT=
METAR CYXU 152000Z 23012KT 12SM FEW019 OVC022 19/15 A2985 RMK CF1SC7 SLP108 DENSITY ALT 1700FT=

TAF AMD CYXU 152113Z 1521/1618 22008KT P6SM FEW020 OVC050 TEMPO
1521/1523 P6SM -SHRA OVC015
FM152300 22008KT P6SM -RA OVC015 TEMPO 1523/1603 4SM SHRA BR
BKN007 OVC012
FM160300 05005KT 11/2SM -RA BR OVC005 TEMPO 1603/1608 6SM -SHRA
BR FEW005 OVC010
FM160800 06010KT 5SM BR OVC007
FM161100 07010KT P6SM OVC008
FM161300 07008KT P6SM OVC012
FM161600 07008KT P6SM BKN020 OVC050
RMK NXT FCST BY 160000Z=

HAMILTON/ON    

METAR CYHM 152200Z 22013G18KT 15SM OVC012 18/15 A2984 RMK SC8 SLP104 DENSITY ALT 1400FT=
METAR CYHM 152100Z 22014G20KT 15SM OVC013 18/15 A2984 RMK SC8 SLP107 DENSITY ALT 1400FT=
METAR CYHM 152000Z 22016G22KT 15SM OVC016 17/15 A2985 RMK SC8 SLP108 DENSITY ALT 1400FT=

TAF CYHM 151738Z 1518/1618 23015G28KT P6SM OVC015 TEMPO 1518/1523
P6SM -SHRA OVC010
FM152300 23012KT P6SM -SHRA OVC015 TEMPO 1523/1602 4SM -SHRA BR
BKN007 OVC012
FM160200 33005KT 6SM -SHRA BR OVC010 TEMPO 1602/1605 11/2SM -RA
BR OVC005
FM160500 04008KT 11/2SM -DZ BR OVC005 TEMPO 1605/1610 6SM -SHRA
BR OVC010 PROB40 1605/1609 3/4SM -RA -DZ BR OVC003
FM161000 04012KT P6SM FEW005 OVC012
FM161600 04012KT P6SM BKN020 BKN050
RMK NXT FCST BY 160000Z=
Your time UTC time
Weather data provided by Environment Canada and NAV CANADA